createdAt,value
2019-05-09T00:02:13.750Z,306.17
2019-05-09T00:03:13.801Z,306.55
2019-05-09T00:04:13.930Z,306.29
2019-05-09T00:05:13.794Z,306.32
2019-05-09T00:06:13.556Z,306.52
2019-05-09T00:07:13.980Z,306.58
2019-05-09T00:08:14.003Z,306.36
2019-05-09T00:09:13.906Z,306.76
2019-05-09T00:10:14.087Z,306.79
2019-05-09T00:11:14.528Z,306.53
2019-05-09T00:12:14.267Z,307.08
2019-05-09T00:13:13.701Z,306.43
2019-05-09T00:14:13.577Z,306.98
2019-05-09T00:15:13.668Z,306.79
2019-05-09T00:16:14.206Z,306.56
2019-05-09T00:17:14.081Z,306.41
2019-05-09T00:18:14.030Z,306.89
2019-05-09T00:19:13.564Z,307.05
2019-05-09T00:20:13.648Z,306.37
2019-05-09T00:21:13.446Z,306.89
2019-05-09T00:22:13.646Z,306.81
2019-05-09T00:23:13.519Z,306.99
2019-05-09T00:24:13.878Z,306.95
2019-05-09T00:25:13.146Z,306.86
2019-05-09T00:26:13.408Z,307.26
2019-05-09T00:27:14.009Z,306.45
2019-05-09T00:28:13.481Z,306.64
2019-05-09T00:29:13.899Z,306.19
2019-05-09T00:30:13.866Z,306.24
2019-05-09T00:31:13.615Z,306.42
2019-05-09T00:32:13.708Z,306.38
2019-05-09T00:33:14.195Z,306.38
2019-05-09T00:34:14.242Z,306.63
2019-05-09T00:35:13.974Z,305.89
2019-05-09T00:36:13.974Z,306.33
2019-05-09T00:37:13.524Z,306.19
2019-05-09T00:38:13.304Z,306.42
2019-05-09T00:39:13.411Z,306.23
2019-05-09T00:40:13.180Z,306.39
2019-05-09T00:41:13.786Z,306.75
2019-05-09T00:42:13.663Z,306.76
2019-05-09T00:43:13.182Z,306.53
2019-05-09T00:44:13.760Z,306.83
2019-05-09T00:45:13.333Z,306.08
2019-05-09T00:46:13.645Z,306.65
2019-05-09T00:47:13.510Z,306.23
2019-05-09T00:48:13.939Z,306.36
2019-05-09T00:49:13.966Z,306.08
2019-05-09T00:50:13.189Z,306.38
2019-05-09T00:51:13.915Z,306.27
2019-05-09T00:52:13.526Z,306.19
2019-05-09T00:53:13.625Z,306.66
2019-05-09T00:54:13.481Z,306.85
2019-05-09T00:55:13.259Z,306.27
2019-05-09T00:56:13.419Z,306.87
2019-05-09T00:57:13.642Z,306.26
2019-05-09T00:58:13.593Z,305.84
2019-05-09T00:59:13.502Z,306.26
2019-05-09T01:00:14.488Z,306.33
2019-05-09T01:01:13.275Z,306.52
2019-05-09T01:02:13.149Z,306.77
2019-05-09T01:03:13.983Z,305.89
2019-05-09T01:04:13.581Z,306.95
2019-05-09T01:05:13.213Z,306.98
2019-05-09T01:06:13.480Z,307.40
2019-05-09T01:07:13.782Z,306.73
2019-05-09T01:08:13.565Z,306.32
2019-05-09T01:09:13.532Z,306.75
2019-05-09T01:10:13.348Z,306.79
2019-05-09T01:11:14.762Z,306.43
2019-05-09T01:12:11.436Z,306.72
2019-05-09T01:13:11.431Z,306.70
2019-05-09T01:14:11.431Z,306.73
2019-05-09T01:15:13.325Z,307.08
2019-05-09T01:16:13.389Z,306.88
2019-05-09T01:17:13.609Z,307.18
2019-05-09T01:18:13.221Z,306.55
2019-05-09T01:19:11.388Z,306.92
2019-05-09T01:20:11.360Z,306.49
2019-05-09T01:21:13.380Z,306.75
2019-05-09T01:22:13.206Z,306.86
2019-05-09T01:23:11.316Z,306.43
2019-05-09T01:24:13.716Z,306.93
2019-05-09T01:25:13.325Z,306.53
2019-05-09T01:26:13.202Z,306.50
2019-05-09T01:27:11.288Z,306.96
2019-05-09T01:28:11.274Z,307.12
2019-05-09T01:29:13.548Z,306.63
2019-05-09T01:30:13.388Z,306.41
2019-05-09T01:31:13.117Z,306.86
2019-05-09T01:32:11.229Z,306.35
2019-05-09T01:33:13.595Z,307.16
2019-05-09T01:34:13.219Z,306.47
2019-05-09T01:35:13.151Z,306.60
2019-05-09T01:36:11.196Z,306.24
2019-05-09T01:37:11.179Z,306.58
2019-05-09T01:38:11.164Z,306.83
2019-05-09T01:39:11.160Z,306.48
2019-05-09T01:40:13.133Z,306.33
2019-05-09T01:41:24.593Z,306.87
2019-05-09T01:42:13.744Z,306.86
2019-05-09T01:43:11.094Z,306.70
2019-05-09T01:44:13.309Z,306.55
2019-05-09T01:45:11.070Z,306.67
2019-05-09T01:46:11.068Z,306.58
2019-05-09T01:47:11.085Z,307.06
2019-05-09T01:48:11.038Z,306.35
2019-05-09T01:49:11.032Z,306.50
2019-05-09T01:50:11.028Z,306.48
2019-05-09T01:51:11.019Z,306.82
2019-05-09T01:52:11.022Z,306.64
2019-05-09T01:53:13.279Z,306.22
2019-05-09T01:54:13.115Z,306.18
2019-05-09T01:55:10.962Z,306.77
2019-05-09T01:56:10.943Z,306.50
2019-05-09T01:57:10.946Z,306.55
2019-05-09T01:58:10.945Z,306.50
2019-05-09T01:59:10.927Z,306.49
2019-05-09T02:00:13.135Z,306.18
2019-05-09T02:01:13.239Z,306.23
2019-05-09T02:02:10.900Z,306.68
2019-05-09T02:03:10.877Z,306.73
2019-05-09T02:04:10.873Z,306.71
2019-05-09T02:05:10.865Z,306.53
2019-05-09T02:06:10.853Z,307.56
2019-05-09T02:07:12.688Z,306.78
2019-05-09T02:08:10.824Z,306.20
2019-05-09T02:09:10.805Z,306.87
2019-05-09T02:10:10.815Z,307.00
2019-05-09T02:11:13.099Z,306.41
2019-05-09T02:12:10.796Z,306.86
2019-05-09T02:13:10.782Z,306.76
2019-05-09T02:14:10.755Z,305.93
2019-05-09T02:15:12.963Z,306.68
2019-05-09T02:16:10.729Z,306.63
2019-05-09T02:17:10.734Z,306.57
2019-05-09T02:18:10.717Z,306.23
2019-05-09T02:19:10.707Z,306.83
2019-05-09T02:20:10.682Z,306.28
2019-05-09T02:21:12.310Z,306.41
2019-05-09T02:22:12.978Z,306.59
2019-05-09T02:23:10.656Z,306.26
2019-05-09T02:24:10.647Z,306.52
2019-05-09T02:25:10.639Z,306.46
2019-05-09T02:26:10.626Z,306.23
2019-05-09T02:27:10.633Z,306.09
2019-05-09T02:28:10.589Z,306.50
2019-05-09T02:29:10.593Z,306.20
2019-05-09T02:30:10.580Z,306.19
2019-05-09T02:31:10.570Z,306.40
2019-05-09T02:32:10.573Z,306.05
2019-05-09T02:33:10.575Z,305.88
2019-05-09T02:34:10.534Z,306.58
2019-05-09T02:35:10.539Z,306.09
2019-05-09T02:36:10.512Z,306.43
2019-05-09T02:37:10.520Z,305.99
2019-05-09T02:38:10.482Z,306.37
2019-05-09T02:39:10.486Z,306.55
2019-05-09T02:40:10.693Z,305.88
2019-05-09T02:41:10.453Z,306.75
2019-05-09T02:42:13.975Z,306.70
2019-05-09T02:43:10.439Z,306.56
2019-05-09T02:44:10.430Z,306.43
2019-05-09T02:45:10.435Z,306.38
2019-05-09T02:46:10.400Z,306.47
2019-05-09T02:47:10.401Z,306.22
2019-05-09T02:48:10.375Z,306.44
2019-05-09T02:49:10.374Z,306.34
2019-05-09T02:50:10.362Z,305.81
2019-05-09T02:51:10.362Z,306.53
2019-05-09T02:52:10.333Z,306.16
2019-05-09T02:53:10.338Z,306.38
2019-05-09T02:54:10.316Z,306.28
2019-05-09T02:55:10.640Z,306.47
2019-05-09T02:56:10.289Z,305.82
2019-05-09T02:57:10.279Z,306.31
2019-05-09T02:58:10.268Z,306.43
2019-05-09T02:59:10.242Z,305.82
2019-05-09T03:00:10.234Z,305.99
2019-05-09T03:01:10.230Z,306.38
2019-05-09T03:02:10.237Z,306.54
2019-05-09T03:03:10.226Z,306.22
2019-05-09T03:04:10.198Z,306.33
2019-05-09T03:05:10.194Z,306.01
2019-05-09T03:06:10.171Z,305.83
2019-05-09T03:07:10.159Z,306.41
2019-05-09T03:08:10.172Z,305.84
2019-05-09T03:09:10.143Z,306.21
2019-05-09T03:10:10.135Z,306.23
2019-05-09T03:11:10.185Z,305.99
2019-05-09T03:12:22.668Z,306.07
2019-05-09T03:13:11.102Z,306.18
2019-05-09T03:14:10.087Z,306.01
2019-05-09T03:15:10.090Z,306.16
2019-05-09T03:16:10.086Z,305.90
2019-05-09T03:17:10.069Z,305.53
2019-05-09T03:18:10.050Z,306.22
2019-05-09T03:19:10.044Z,306.10
2019-05-09T03:20:10.018Z,305.86
2019-05-09T03:21:09.999Z,306.27
2019-05-09T03:22:09.994Z,306.61
2019-05-09T03:23:09.995Z,306.49
2019-05-09T03:24:10.279Z,306.35
2019-05-09T03:25:09.954Z,305.85
2019-05-09T03:26:09.959Z,306.08
2019-05-09T03:27:09.944Z,305.87
2019-05-09T03:28:09.997Z,306.15
2019-05-09T03:29:09.923Z,306.21
2019-05-09T03:30:11.908Z,305.99
2019-05-09T03:31:10.072Z,305.91
2019-05-09T03:32:09.885Z,306.02
2019-05-09T03:33:10.665Z,306.43
2019-05-09T03:34:09.915Z,306.46
2019-05-09T03:35:09.858Z,305.90
2019-05-09T03:36:09.858Z,305.70
2019-05-09T03:37:09.832Z,306.10
2019-05-09T03:38:09.833Z,306.22
2019-05-09T03:39:09.814Z,306.13
2019-05-09T03:40:09.800Z,306.33
2019-05-09T03:41:09.791Z,305.83
2019-05-09T03:42:09.779Z,306.30
2019-05-09T03:43:09.760Z,305.39
2019-05-09T03:44:09.757Z,306.38
2019-05-09T03:45:09.737Z,305.71
2019-05-09T03:46:09.730Z,306.75
2019-05-09T03:47:09.728Z,305.93
2019-05-09T03:48:09.714Z,306.61
2019-05-09T03:49:09.711Z,306.02
2019-05-09T03:50:09.686Z,306.40
2019-05-09T03:51:09.665Z,306.21
2019-05-09T03:52:09.656Z,305.63
2019-05-09T03:53:09.650Z,306.47
2019-05-09T03:54:09.655Z,306.50
2019-05-09T03:55:09.671Z,306.05
2019-05-09T03:56:09.623Z,306.09
2019-05-09T03:57:09.614Z,306.16
2019-05-09T03:58:09.625Z,306.23
2019-05-09T03:59:09.611Z,306.42
2019-05-09T04:00:09.577Z,306.01
2019-05-09T04:01:10.875Z,306.48
2019-05-09T04:02:10.323Z,305.56
2019-05-09T04:03:09.541Z,305.97
2019-05-09T04:04:09.555Z,306.40
2019-05-09T04:05:09.546Z,305.73
2019-05-09T04:06:09.509Z,306.21
2019-05-09T04:07:09.502Z,306.05
2019-05-09T04:08:09.488Z,306.73
2019-05-09T04:09:09.498Z,306.66
2019-05-09T04:10:09.460Z,306.25
2019-05-09T04:11:09.445Z,306.66
2019-05-09T04:12:09.460Z,307.08
2019-05-09T04:13:11.105Z,306.43
2019-05-09T04:14:09.427Z,306.41
2019-05-09T04:15:09.399Z,306.32
2019-05-09T04:16:09.391Z,306.36
2019-05-09T04:17:09.387Z,306.29
2019-05-09T04:18:09.370Z,306.51
2019-05-09T04:19:09.366Z,306.07
2019-05-09T04:20:09.356Z,306.02
2019-05-09T04:21:09.348Z,306.01
2019-05-09T04:22:09.326Z,306.62
2019-05-09T04:23:09.306Z,306.22
2019-05-09T04:24:09.310Z,306.26
2019-05-09T04:25:09.289Z,306.01
2019-05-09T04:26:09.298Z,306.15
2019-05-09T04:27:09.296Z,306.38
2019-05-09T04:28:09.269Z,305.90
2019-05-09T04:29:09.461Z,306.24
2019-05-09T04:30:09.579Z,306.19
2019-05-09T04:31:09.228Z,305.96
2019-05-09T04:32:09.229Z,306.82
2019-05-09T04:33:09.216Z,306.25
2019-05-09T04:34:09.796Z,306.47
2019-05-09T04:35:09.255Z,306.34
2019-05-09T04:36:09.167Z,306.52
2019-05-09T04:37:12.061Z,306.48
2019-05-09T04:38:09.149Z,305.98
2019-05-09T04:39:12.617Z,305.98
2019-05-09T04:40:10.145Z,306.23
2019-05-09T04:41:09.121Z,306.00
2019-05-09T04:42:09.096Z,306.37
2019-05-09T04:43:15.528Z,305.38
2019-05-09T04:44:17.283Z,305.81
2019-05-09T04:45:10.316Z,306.49
2019-05-09T04:46:12.957Z,305.78
2019-05-09T04:47:10.051Z,306.23
2019-05-09T04:48:13.101Z,306.24
2019-05-09T04:49:10.028Z,306.14
2019-05-09T04:50:09.033Z,305.87
2019-05-09T04:51:09.006Z,305.92
2019-05-09T04:52:09.002Z,305.98
2019-05-09T04:53:08.989Z,305.81
2019-05-09T04:54:08.974Z,306.08
2019-05-09T04:55:08.977Z,305.84
2019-05-09T04:56:08.953Z,306.10
2019-05-09T04:57:08.936Z,306.41
2019-05-09T04:58:09.368Z,306.20
2019-05-09T04:59:08.913Z,306.30
2019-05-09T05:00:10.073Z,306.60
2019-05-09T05:01:08.893Z,306.58
2019-05-09T05:02:08.886Z,306.53
2019-05-09T05:03:08.875Z,306.50
2019-05-09T05:04:08.861Z,306.37
2019-05-09T05:05:08.870Z,306.17
2019-05-09T05:06:08.838Z,306.43
2019-05-09T05:07:08.823Z,306.40
2019-05-09T05:08:08.824Z,305.95
2019-05-09T05:09:08.808Z,306.34
2019-05-09T05:10:09.157Z,306.09
2019-05-09T05:11:08.783Z,306.22
2019-05-09T05:12:08.772Z,306.31
2019-05-09T05:13:22.892Z,306.27
2019-05-09T05:14:09.752Z,305.97
2019-05-09T05:15:08.761Z,306.39
2019-05-09T05:16:08.730Z,306.69
2019-05-09T05:17:11.391Z,306.31
2019-05-09T05:18:08.717Z,305.96
2019-05-09T05:19:08.693Z,306.02
2019-05-09T05:20:08.703Z,306.36
2019-05-09T05:21:08.672Z,305.91
2019-05-09T05:22:08.665Z,306.40
2019-05-09T05:23:08.646Z,306.05
2019-05-09T05:24:08.633Z,306.45
2019-05-09T05:25:09.403Z,306.11
2019-05-09T05:26:09.422Z,306.10
2019-05-09T05:27:08.608Z,306.54
2019-05-09T05:28:08.750Z,306.00
2019-05-09T05:29:08.643Z,306.36
2019-05-09T05:30:08.594Z,306.61
2019-05-09T05:31:08.571Z,306.10
2019-05-09T05:32:08.631Z,305.98
2019-05-09T05:33:08.554Z,305.72
2019-05-09T05:34:08.518Z,306.68
2019-05-09T05:35:08.515Z,306.44
2019-05-09T05:36:08.500Z,306.88
2019-05-09T05:37:08.490Z,306.51
2019-05-09T05:38:08.713Z,306.33
2019-05-09T05:39:08.474Z,306.18
2019-05-09T05:40:08.487Z,306.62
2019-05-09T05:41:08.459Z,305.94
2019-05-09T05:42:08.476Z,306.22
2019-05-09T05:43:08.905Z,306.40
2019-05-09T05:44:08.654Z,305.96
2019-05-09T05:45:08.403Z,306.11
2019-05-09T05:46:08.408Z,306.52
2019-05-09T05:47:08.389Z,306.09
2019-05-09T05:48:08.365Z,306.89
2019-05-09T05:49:08.357Z,306.37
2019-05-09T05:50:08.494Z,306.37
2019-05-09T05:51:08.354Z,306.49
2019-05-09T05:52:08.367Z,306.39
2019-05-09T05:53:08.317Z,306.04
2019-05-09T05:54:08.303Z,306.29
2019-05-09T05:55:08.289Z,306.03
2019-05-09T05:56:08.611Z,306.36
2019-05-09T05:57:08.607Z,306.25
2019-05-09T05:58:08.728Z,306.57
2019-05-09T05:59:08.575Z,306.90
2019-05-09T06:00:08.241Z,306.31
2019-05-09T06:01:08.468Z,306.06
2019-05-09T06:02:08.788Z,306.65
2019-05-09T06:03:08.851Z,306.32
2019-05-09T06:04:08.197Z,306.10
2019-05-09T06:05:08.600Z,306.52
2019-05-09T06:06:08.945Z,306.54
2019-05-09T06:07:08.315Z,306.32
2019-05-09T06:08:08.404Z,305.87
2019-05-09T06:09:08.375Z,305.96
2019-05-09T06:10:08.424Z,306.15
2019-05-09T06:11:11.938Z,306.27
2019-05-09T06:12:08.478Z,306.68
2019-05-09T06:13:08.118Z,306.67
2019-05-09T06:14:11.629Z,305.88
2019-05-09T06:15:08.064Z,307.02
2019-05-09T06:16:08.736Z,305.63
2019-05-09T06:17:08.297Z,306.18
2019-05-09T06:18:08.180Z,305.99
2019-05-09T06:19:08.994Z,306.05
2019-05-09T06:20:08.958Z,305.78
2019-05-09T06:21:08.884Z,306.13
2019-05-09T06:22:08.470Z,306.13
2019-05-09T06:23:08.626Z,306.55
2019-05-09T06:24:08.609Z,306.08
2019-05-09T06:25:09.724Z,306.63
2019-05-09T06:26:10.095Z,306.43
2019-05-09T06:27:10.459Z,305.88
2019-05-09T06:28:07.925Z,306.94
2019-05-09T06:29:08.142Z,306.45
2019-05-09T06:30:08.646Z,306.18
2019-05-09T06:31:07.925Z,306.09
2019-05-09T06:32:08.142Z,306.63
2019-05-09T06:33:08.980Z,306.72
2019-05-09T06:34:08.476Z,305.73
2019-05-09T06:35:08.451Z,306.52
2019-05-09T06:36:08.436Z,307.21
2019-05-09T06:37:08.937Z,306.46
2019-05-09T06:38:08.044Z,306.15
2019-05-09T06:39:08.334Z,306.07
2019-05-09T06:40:08.242Z,306.34
2019-05-09T06:41:08.815Z,306.02
2019-05-09T06:42:09.046Z,306.04
2019-05-09T06:43:08.078Z,306.68
2019-05-09T06:44:14.361Z,306.27
2019-05-09T06:45:08.743Z,305.65
2019-05-09T06:46:08.252Z,306.25
2019-05-09T06:47:08.404Z,306.37
2019-05-09T06:48:07.755Z,306.00
2019-05-09T06:49:21.483Z,306.04
2019-05-09T06:50:08.687Z,305.64
2019-05-09T06:51:07.700Z,306.31
2019-05-09T06:52:08.726Z,305.92
2019-05-09T06:53:08.144Z,305.40
2019-05-09T06:54:08.198Z,306.16
2019-05-09T06:55:08.727Z,306.08
2019-05-09T06:56:07.672Z,306.20
2019-05-09T06:57:08.081Z,305.95
2019-05-09T06:58:08.940Z,305.69
2019-05-09T06:59:07.756Z,305.90
2019-05-09T07:00:08.414Z,305.99
2019-05-09T07:01:07.793Z,305.61
2019-05-09T07:02:08.231Z,305.73
2019-05-09T07:03:08.288Z,305.89
2019-05-09T07:04:09.140Z,305.98
2019-05-09T07:05:07.732Z,305.71
2019-05-09T07:06:08.432Z,305.06
2019-05-09T07:07:08.100Z,305.86
2019-05-09T07:08:08.134Z,305.40
2019-05-09T07:09:08.353Z,306.20
2019-05-09T07:10:07.680Z,306.23
2019-05-09T07:11:07.658Z,306.39
2019-05-09T07:12:07.922Z,305.73
2019-05-09T07:13:08.059Z,305.87
2019-05-09T07:14:08.366Z,305.77
2019-05-09T07:15:08.750Z,306.32
2019-05-09T07:16:08.835Z,306.17
2019-05-09T07:17:08.210Z,306.44
2019-05-09T07:18:08.109Z,306.31
2019-05-09T07:19:08.036Z,306.15
2019-05-09T07:20:08.484Z,306.21
2019-05-09T07:21:08.251Z,305.55
2019-05-09T07:22:09.108Z,306.13
2019-05-09T07:23:09.072Z,306.19
2019-05-09T07:24:07.972Z,305.94
2019-05-09T07:25:10.670Z,305.81
2019-05-09T07:26:07.800Z,305.81
2019-05-09T07:27:07.428Z,306.14
2019-05-09T07:28:07.737Z,305.83
2019-05-09T07:29:07.517Z,305.69
2019-05-09T07:30:07.760Z,306.14
2019-05-09T07:31:07.793Z,305.57
2019-05-09T07:32:07.594Z,306.08
2019-05-09T07:33:08.549Z,305.95
2019-05-09T07:34:08.574Z,306.13
2019-05-09T07:35:08.804Z,305.73
2019-05-09T07:36:08.569Z,306.06
2019-05-09T07:37:08.406Z,305.55
2019-05-09T07:38:08.489Z,306.35
2019-05-09T07:39:08.818Z,305.59
2019-05-09T07:40:08.370Z,306.24
2019-05-09T07:41:08.837Z,305.89
2019-05-09T07:42:07.760Z,305.85
2019-05-09T07:43:07.822Z,305.92
2019-05-09T07:44:07.713Z,305.65
2019-05-09T07:45:08.846Z,305.38
2019-05-09T07:46:08.820Z,305.86
2019-05-09T07:47:07.673Z,305.44
2019-05-09T07:48:07.626Z,305.21
2019-05-09T07:49:08.535Z,305.65
2019-05-09T07:50:08.590Z,305.71
2019-05-09T07:51:07.877Z,305.11
2019-05-09T07:52:10.358Z,305.81
2019-05-09T07:53:08.822Z,305.31
2019-05-09T07:54:20.621Z,305.84
2019-05-09T07:55:08.768Z,305.24
2019-05-09T07:56:07.877Z,305.58
2019-05-09T07:57:08.536Z,306.05
2019-05-09T07:58:07.983Z,305.78
2019-05-09T07:59:07.665Z,305.64
2019-05-09T08:00:07.822Z,305.78
2019-05-09T08:01:08.505Z,305.89
2019-05-09T08:02:08.781Z,305.61
2019-05-09T08:03:09.243Z,306.27
2019-05-09T08:04:07.885Z,306.24
2019-05-09T08:05:08.511Z,305.76
2019-05-09T08:06:08.762Z,305.86
2019-05-09T08:07:08.402Z,305.38
2019-05-09T08:08:07.979Z,305.48
2019-05-09T08:09:08.426Z,305.99
2019-05-09T08:10:08.849Z,305.42
2019-05-09T08:11:08.875Z,305.61
2019-05-09T08:12:07.511Z,305.79
2019-05-09T08:13:11.028Z,305.54
2019-05-09T08:14:08.412Z,305.77
2019-05-09T08:15:15.653Z,306.00
2019-05-09T08:16:12.411Z,305.40
2019-05-09T08:17:08.633Z,305.72
2019-05-09T08:18:08.455Z,305.26
2019-05-09T08:19:07.549Z,305.49
2019-05-09T08:20:07.966Z,305.29
2019-05-09T08:21:08.478Z,305.92
2019-05-09T08:22:08.039Z,305.85
2019-05-09T08:23:08.745Z,305.94
2019-05-09T08:24:08.121Z,305.27
2019-05-09T08:25:08.241Z,305.82
2019-05-09T08:26:08.805Z,305.95
2019-05-09T08:27:08.561Z,305.74
2019-05-09T08:28:08.843Z,305.87
2019-05-09T08:29:09.234Z,305.89
2019-05-09T08:30:07.867Z,306.13
2019-05-09T08:31:08.327Z,306.17
2019-05-09T08:32:07.455Z,306.19
2019-05-09T08:33:08.285Z,305.66
2019-05-09T08:34:08.261Z,306.02
2019-05-09T08:35:08.326Z,306.24
2019-05-09T08:36:08.699Z,305.50
2019-05-09T08:37:08.089Z,305.52
2019-05-09T08:38:08.550Z,305.76
2019-05-09T08:39:08.180Z,305.79
2019-05-09T08:40:07.996Z,305.60
2019-05-09T08:41:08.770Z,305.63
2019-05-09T08:42:08.591Z,305.33
2019-05-09T08:43:07.610Z,305.25
2019-05-09T08:44:07.977Z,305.76
2019-05-09T08:45:09.743Z,305.38
2019-05-09T08:46:07.922Z,305.44
2019-05-09T08:47:07.845Z,305.00
2019-05-09T08:48:06.382Z,305.75
2019-05-09T08:49:08.198Z,305.11
2019-05-09T08:50:07.971Z,305.49
2019-05-09T08:51:08.762Z,304.83
2019-05-09T08:52:13.005Z,306.04
2019-05-09T08:53:08.243Z,305.59
2019-05-09T08:54:06.349Z,305.28
2019-05-09T08:55:08.454Z,305.58
2019-05-09T08:56:08.588Z,305.25
2019-05-09T08:57:07.716Z,305.41
2019-05-09T08:58:08.067Z,304.94
2019-05-09T08:59:08.269Z,305.28
2019-05-09T09:00:08.204Z,305.13
2019-05-09T09:01:10.143Z,305.37
2019-05-09T09:02:14.960Z,305.85
2019-05-09T09:03:08.004Z,305.58
2019-05-09T09:04:08.103Z,305.84
2019-05-09T09:05:08.636Z,305.56
2019-05-09T09:06:08.338Z,305.88
2019-05-09T09:07:08.137Z,306.03
2019-05-09T09:08:08.226Z,306.00
2019-05-09T09:09:08.094Z,305.89
2019-05-09T09:10:08.488Z,306.17
2019-05-09T09:11:08.367Z,305.85
2019-05-09T09:12:23.095Z,305.94
2019-05-09T09:13:08.881Z,305.90
2019-05-09T09:14:07.834Z,305.70
2019-05-09T09:15:07.749Z,305.36
2019-05-09T09:16:18.068Z,305.13
2019-05-09T09:17:07.879Z,304.64
2019-05-09T09:18:08.333Z,304.59
2019-05-09T09:19:08.680Z,304.86
2019-05-09T09:20:07.729Z,304.52
2019-05-09T09:21:08.110Z,304.40
2019-05-09T09:22:08.624Z,304.53
2019-05-09T09:23:08.562Z,304.19
2019-05-09T09:24:08.578Z,304.73
2019-05-09T09:25:07.672Z,304.05
2019-05-09T09:26:08.048Z,304.19
2019-05-09T09:27:07.676Z,304.47
2019-05-09T09:28:08.490Z,304.25
2019-05-09T09:29:08.220Z,304.70
2019-05-09T09:30:17.645Z,304.72
2019-05-09T09:31:08.164Z,304.32
2019-05-09T09:32:08.071Z,304.39
2019-05-09T09:33:05.883Z,304.66
2019-05-09T09:34:07.902Z,304.51
2019-05-09T09:35:07.983Z,304.60
2019-05-09T09:36:08.541Z,304.40
2019-05-09T09:37:10.761Z,304.76
2019-05-09T09:38:09.090Z,304.52
2019-05-09T09:39:07.811Z,304.15
2019-05-09T09:40:08.441Z,304.10
2019-05-09T09:41:07.856Z,303.66
2019-05-09T09:42:08.783Z,303.77
2019-05-09T09:43:08.684Z,303.68
2019-05-09T09:44:05.773Z,304.19
2019-05-09T09:45:07.829Z,304.32
2019-05-09T09:46:13.332Z,304.33
2019-05-09T09:47:07.365Z,304.83
2019-05-09T09:48:05.721Z,305.17
2019-05-09T09:49:07.965Z,305.61
2019-05-09T09:50:05.730Z,305.18
2019-05-09T09:51:07.870Z,306.23
2019-05-09T09:52:08.312Z,306.20
2019-05-09T09:53:08.303Z,306.81
2019-05-09T09:54:08.539Z,306.15
2019-05-09T09:55:05.659Z,306.12
2019-05-09T09:56:05.641Z,305.66
2019-05-09T09:57:05.629Z,305.30
2019-05-09T09:58:07.963Z,305.80
2019-05-09T09:59:05.600Z,305.20
2019-05-09T10:00:07.536Z,305.40
2019-05-09T10:01:05.569Z,304.93
2019-05-09T10:02:09.950Z,305.24
2019-05-09T10:03:07.844Z,304.72
2019-05-09T10:04:16.595Z,303.75
2019-05-09T10:05:07.733Z,304.42
2019-05-09T10:06:05.532Z,303.66
2019-05-09T10:07:05.522Z,304.64
2019-05-09T10:08:05.510Z,304.28
2019-05-09T10:09:05.500Z,304.17
2019-05-09T10:10:07.701Z,303.65
2019-05-09T10:11:07.983Z,303.79
2019-05-09T10:12:05.466Z,303.16
2019-05-09T10:13:09.836Z,302.96
2019-05-09T10:14:07.866Z,302.94
2019-05-09T10:15:08.173Z,303.06
2019-05-09T10:16:05.421Z,302.98
2019-05-09T10:17:05.424Z,302.76
2019-05-09T10:18:07.383Z,302.34
2019-05-09T10:19:05.385Z,302.24
2019-05-09T10:20:05.393Z,302.60
2019-05-09T10:21:05.375Z,302.31
2019-05-09T10:22:05.342Z,302.35
2019-05-09T10:23:14.955Z,302.17
2019-05-09T10:24:07.944Z,302.42
2019-05-09T10:25:07.721Z,302.38
2019-05-09T10:26:05.327Z,302.48
2019-05-09T10:27:08.324Z,302.43
2019-05-09T10:28:05.282Z,302.24
2019-05-09T10:29:05.279Z,302.52
2019-05-09T10:30:05.273Z,302.21
2019-05-09T10:31:05.275Z,302.52
2019-05-09T10:32:05.248Z,302.57
2019-05-09T10:33:05.226Z,303.25
2019-05-09T10:34:05.238Z,303.21
2019-05-09T10:35:05.207Z,302.64
2019-05-09T10:36:05.507Z,302.94
2019-05-09T10:37:07.509Z,303.32
2019-05-09T10:38:08.465Z,304.23
2019-05-09T10:39:05.164Z,303.91
2019-05-09T10:40:05.153Z,304.08
2019-05-09T10:41:05.302Z,305.03
2019-05-09T10:42:05.127Z,304.67
2019-05-09T10:43:05.110Z,305.74
2019-05-09T10:44:05.097Z,305.66
2019-05-09T10:45:07.321Z,305.54
2019-05-09T10:46:05.094Z,305.77
2019-05-09T10:47:05.091Z,305.71
2019-05-09T10:48:05.073Z,306.02
2019-05-09T10:49:08.022Z,305.60
2019-05-09T10:50:05.030Z,305.91
2019-05-09T10:51:06.050Z,305.98
2019-05-09T10:52:05.061Z,306.31
2019-05-09T10:53:07.835Z,305.79
2019-05-09T10:54:04.985Z,305.56
2019-05-09T10:55:04.983Z,305.30
2019-05-09T10:56:04.969Z,305.02
2019-05-09T10:57:04.970Z,304.79
2019-05-09T10:58:07.852Z,304.74
2019-05-09T10:59:04.945Z,304.35
2019-05-09T11:00:05.006Z,303.97
2019-05-09T11:01:04.930Z,304.09
2019-05-09T11:02:04.906Z,303.82
2019-05-09T11:03:04.905Z,303.28
2019-05-09T11:04:04.889Z,303.81
2019-05-09T11:05:04.880Z,303.55
2019-05-09T11:06:04.869Z,302.60
2019-05-09T11:07:04.862Z,303.45
2019-05-09T11:08:04.855Z,303.46
2019-05-09T11:09:04.828Z,302.37
2019-05-09T11:10:22.575Z,301.67
2019-05-09T11:11:09.085Z,301.02
2019-05-09T11:12:04.810Z,300.62
2019-05-09T11:13:04.813Z,299.96
2019-05-09T11:14:04.782Z,300.55
2019-05-09T11:15:04.769Z,300.65
2019-05-09T11:16:04.851Z,300.77
2019-05-09T11:17:11.579Z,300.68
2019-05-09T11:18:07.937Z,301.32
2019-05-09T11:19:04.738Z,301.19
2019-05-09T11:20:04.727Z,301.49
2019-05-09T11:21:04.704Z,301.08
2019-05-09T11:22:04.691Z,301.46
2019-05-09T11:23:04.702Z,302.06
2019-05-09T11:24:04.678Z,301.85
2019-05-09T11:25:04.674Z,302.05
2019-05-09T11:26:04.642Z,302.55
2019-05-09T11:27:04.627Z,302.57
2019-05-09T11:28:11.001Z,302.94
2019-05-09T11:29:07.802Z,303.12
2019-05-09T11:30:04.594Z,303.11
2019-05-09T11:31:04.590Z,303.86
2019-05-09T11:32:04.593Z,303.32
2019-05-09T11:33:04.578Z,303.62
2019-05-09T11:34:04.560Z,303.47
2019-05-09T11:35:04.548Z,303.85
2019-05-09T11:36:04.523Z,304.55
2019-05-09T11:37:04.527Z,303.76
2019-05-09T11:38:04.520Z,304.99
2019-05-09T11:39:04.755Z,305.31
2019-05-09T11:40:04.487Z,305.00
2019-05-09T11:41:04.473Z,304.51
2019-05-09T11:42:04.473Z,304.71
2019-05-09T11:43:04.470Z,304.33
2019-05-09T11:44:04.462Z,304.85
2019-05-09T11:45:04.436Z,304.76
2019-05-09T11:46:04.422Z,305.07
2019-05-09T11:47:04.404Z,305.96
2019-05-09T11:48:04.410Z,306.04
2019-05-09T11:49:04.398Z,305.89
2019-05-09T11:50:04.379Z,307.08
2019-05-09T11:51:04.372Z,306.88
2019-05-09T11:52:04.363Z,307.43
2019-05-09T11:53:04.357Z,308.02
2019-05-09T11:54:04.345Z,307.47
2019-05-09T11:55:04.324Z,308.07
2019-05-09T11:56:04.329Z,307.88
2019-05-09T11:57:04.316Z,308.04
2019-05-09T11:58:04.302Z,307.77
2019-05-09T11:59:04.291Z,307.45
2019-05-09T12:00:04.270Z,308.41
2019-05-09T12:01:04.281Z,307.89
2019-05-09T12:02:04.250Z,308.20
2019-05-09T12:03:04.256Z,308.11
2019-05-09T12:04:04.226Z,309.10
2019-05-09T12:05:04.223Z,308.35
2019-05-09T12:06:04.211Z,308.62
2019-05-09T12:07:04.183Z,308.41
2019-05-09T12:08:04.266Z,308.63
2019-05-09T12:09:04.170Z,308.22
2019-05-09T12:10:04.170Z,308.33
2019-05-09T12:11:04.166Z,307.70
2019-05-09T12:12:04.132Z,307.83
2019-05-09T12:13:04.124Z,307.94
2019-05-09T12:14:04.140Z,307.63
2019-05-09T12:15:04.119Z,307.48
2019-05-09T12:16:04.097Z,308.08
2019-05-09T12:17:04.091Z,308.32
2019-05-09T12:18:10.683Z,307.99
2019-05-09T12:19:05.058Z,308.08
2019-05-09T12:20:10.587Z,307.64
2019-05-09T12:21:05.028Z,307.83
2019-05-09T12:22:04.046Z,307.58
2019-05-09T12:23:04.025Z,307.43
2019-05-09T12:24:04.040Z,307.24
2019-05-09T12:25:04.003Z,307.21
2019-05-09T12:26:03.983Z,306.87
2019-05-09T12:27:03.990Z,307.62
2019-05-09T12:28:03.989Z,307.53
2019-05-09T12:29:03.959Z,307.13
2019-05-09T12:30:03.941Z,307.63